createdAt,value
2019-05-28T00:00:11.722Z,107.80
2019-05-28T00:00:47.214Z,110.00
2019-05-28T00:01:22.544Z,104.00
2019-05-28T00:01:58.178Z,99.90
2019-05-28T00:02:33.649Z,86.20
2019-05-28T00:03:09.343Z,96.30
2019-05-28T00:03:44.680Z,115.20
2019-05-28T00:04:19.761Z,108.50
2019-05-28T00:04:55.051Z,109.00
2019-05-28T00:05:30.248Z,97.20
2019-05-28T00:06:05.554Z,88.50
2019-05-28T00:06:41.023Z,90.40
2019-05-28T00:07:16.225Z,101.40
2019-05-28T00:07:51.310Z,112.20
2019-05-28T00:08:26.502Z,95.00
2019-05-28T00:09:02.126Z,79.80
2019-05-28T00:09:37.311Z,83.00
2019-05-28T00:10:12.518Z,99.90
2019-05-28T00:10:47.607Z,86.50
2019-05-28T00:11:23.201Z,94.20
2019-05-28T00:11:58.774Z,75.90
2019-05-28T00:12:34.179Z,91.90
2019-05-28T00:13:09.353Z,100.00
2019-05-28T00:13:44.683Z,86.90
2019-05-28T00:14:20.162Z,74.20
2019-05-28T00:14:55.663Z,76.70
2019-05-28T00:15:31.180Z,87.70
2019-05-28T00:16:09.771Z,96.30
2019-05-28T00:16:41.770Z,108.30
2019-05-28T00:17:17.040Z,107.60
2019-05-28T00:17:52.448Z,95.80
2019-05-28T00:18:27.671Z,101.50
2019-05-28T00:19:03.381Z,110.40
2019-05-28T00:19:38.656Z,117.00
2019-05-28T00:20:13.952Z,100.50
2019-05-28T00:20:49.250Z,74.20
2019-05-28T00:21:24.533Z,122.50
2019-05-28T00:21:59.942Z,113.10
2019-05-28T00:22:35.114Z,116.30
2019-05-28T00:23:10.520Z,82.40
2019-05-28T00:23:46.016Z,103.70
2019-05-28T00:24:21.410Z,115.60
2019-05-28T00:24:56.588Z,101.60
2019-05-28T00:25:32.213Z,95.90
2019-05-28T00:26:07.315Z,93.20
2019-05-28T00:26:42.541Z,94.90
2019-05-28T00:27:18.021Z,80.20
2019-05-28T00:27:53.227Z,81.50
2019-05-28T00:28:28.397Z,99.80
2019-05-28T00:29:03.723Z,93.00
2019-05-28T00:29:39.126Z,98.70
2019-05-28T00:30:20.474Z,100.80
2019-05-28T00:30:49.907Z,111.30
2019-05-28T00:31:25.192Z,115.60
2019-05-28T00:32:00.586Z,89.70
2019-05-28T00:32:35.858Z,102.40
2019-05-28T00:33:11.084Z,109.40
2019-05-28T00:33:46.464Z,113.40
2019-05-28T00:34:22.278Z,104.10
2019-05-28T00:34:57.665Z,109.40
2019-05-28T00:35:33.073Z,90.00
2019-05-28T00:36:08.250Z,89.90
2019-05-28T00:36:43.642Z,98.00
2019-05-28T00:37:19.144Z,90.90
2019-05-28T00:37:54.310Z,88.50
2019-05-28T00:38:29.803Z,89.40
2019-05-28T00:39:05.305Z,104.30
2019-05-28T00:39:40.615Z,85.80
2019-05-28T00:40:15.794Z,70.20
2019-05-28T00:40:51.483Z,90.30
2019-05-28T00:41:26.987Z,98.00
2019-05-28T00:42:02.566Z,100.10
2019-05-28T00:42:37.772Z,110.60
2019-05-28T00:43:13.064Z,103.90
2019-05-28T00:43:48.405Z,99.20
2019-05-28T00:44:23.773Z,105.70
2019-05-28T00:44:59.300Z,107.00
2019-05-28T00:45:34.494Z,117.70
2019-05-28T00:46:09.899Z,106.30
2019-05-28T00:46:45.177Z,115.40
2019-05-28T00:47:20.685Z,110.80
2019-05-28T00:47:56.274Z,110.20
2019-05-28T00:48:31.492Z,105.60
2019-05-28T00:49:07.001Z,93.10
2019-05-28T00:49:42.520Z,107.30
2019-05-28T00:50:18.038Z,108.90
2019-05-28T00:50:53.330Z,111.80
2019-05-28T00:51:28.736Z,112.60
2019-05-28T00:52:03.929Z,91.70
2019-05-28T00:52:39.035Z,113.30
2019-05-28T00:53:14.203Z,110.10
2019-05-28T00:53:49.756Z,104.70
2019-05-28T00:54:25.045Z,117.30
2019-05-28T00:55:00.466Z,93.30
2019-05-28T00:55:35.655Z,87.40
2019-05-28T00:56:11.195Z,92.20
2019-05-28T00:56:46.577Z,95.60
2019-05-28T00:57:21.791Z,124.30
2019-05-28T00:57:57.300Z,125.50
2019-05-28T00:58:32.681Z,130.70
2019-05-28T00:59:07.901Z,118.40
2019-05-28T00:59:43.373Z,103.50
2019-05-28T01:00:34.123Z,113.20
2019-05-28T01:00:53.890Z,126.00
2019-05-28T01:01:29.273Z,111.90
2019-05-28T01:02:04.764Z,101.60
2019-05-28T01:02:40.063Z,104.30
2019-05-28T01:03:15.348Z,106.80
2019-05-28T01:03:50.991Z,109.20
2019-05-28T01:04:26.435Z,110.60
2019-05-28T01:05:01.626Z,115.80
2019-05-28T01:05:37.030Z,99.80
2019-05-28T01:06:12.515Z,87.60
2019-05-28T01:06:47.947Z,126.30
2019-05-28T01:07:23.436Z,136.00
2019-05-28T01:07:58.421Z,119.50
2019-05-28T01:08:33.728Z,112.90
2019-05-28T01:09:09.149Z,101.70
2019-05-28T01:09:44.466Z,112.20
2019-05-28T01:10:19.957Z,119.30
2019-05-28T01:10:55.267Z,128.60
2019-05-28T01:11:30.779Z,118.40
2019-05-28T01:12:06.266Z,88.00
2019-05-28T01:12:41.567Z,95.10
2019-05-28T01:13:16.658Z,114.00
2019-05-28T01:13:52.078Z,130.00
2019-05-28T01:14:27.165Z,128.90
2019-05-28T01:15:02.469Z,98.80
2019-05-28T01:15:37.953Z,94.90
2019-05-28T01:16:13.150Z,111.10
2019-05-28T01:16:48.939Z,106.20
2019-05-28T01:17:24.436Z,91.60
2019-05-28T01:17:59.647Z,98.70
2019-05-28T01:18:34.934Z,109.40
2019-05-28T01:19:10.452Z,114.90
2019-05-28T01:19:45.738Z,113.80
2019-05-28T01:20:20.941Z,83.10
2019-05-28T01:20:56.126Z,105.10
2019-05-28T01:21:31.439Z,124.30
2019-05-28T01:22:06.828Z,90.00
2019-05-28T01:22:42.142Z,112.90
2019-05-28T01:23:17.518Z,106.20
2019-05-28T01:23:52.865Z,86.50
2019-05-28T01:24:28.068Z,85.40
2019-05-28T01:25:03.555Z,93.60
2019-05-28T01:25:38.751Z,107.30
2019-05-28T01:26:14.035Z,117.70
2019-05-28T01:26:49.251Z,99.70
2019-05-28T01:27:24.757Z,106.30
2019-05-28T01:28:00.136Z,110.40
2019-05-28T01:28:35.428Z,121.00
2019-05-28T01:29:10.832Z,96.20
2019-05-28T01:29:46.540Z,111.50
2019-05-28T01:30:21.954Z,117.60
2019-05-28T01:31:00.623Z,119.80
2019-05-28T01:31:32.263Z,107.40
2019-05-28T01:32:07.461Z,101.20
2019-05-28T01:32:42.866Z,85.40
2019-05-28T01:33:18.180Z,72.60
2019-05-28T01:33:54.080Z,87.00
2019-05-28T01:34:29.393Z,97.00
2019-05-28T01:35:04.562Z,97.80
2019-05-28T01:35:39.889Z,109.30
2019-05-28T01:36:14.886Z,103.30
2019-05-28T01:36:50.395Z,90.50
2019-05-28T01:37:25.808Z,99.80
2019-05-28T01:38:00.991Z,100.10
2019-05-28T01:38:36.092Z,109.30
2019-05-28T01:39:11.706Z,96.80
2019-05-28T01:39:46.959Z,91.50
2019-05-28T01:40:23.293Z,101.20
2019-05-28T01:40:57.778Z,110.10
2019-05-28T01:41:33.058Z,107.60
2019-05-28T01:42:08.456Z,95.90
2019-05-28T01:42:43.842Z,103.80
2019-05-28T01:43:19.148Z,99.60
2019-05-28T01:43:54.791Z,92.80
2019-05-28T01:44:29.974Z,97.10
2019-05-28T01:45:05.292Z,99.40
2019-05-28T01:45:40.730Z,105.60
2019-05-28T01:46:16.102Z,83.50
2019-05-28T01:46:51.487Z,93.80
2019-05-28T01:47:26.700Z,98.00
2019-05-28T01:48:01.978Z,98.90
2019-05-28T01:48:37.402Z,80.40
2019-05-28T01:49:12.686Z,70.70
2019-05-28T01:49:48.197Z,91.10
2019-05-28T01:50:23.399Z,104.10
2019-05-28T01:50:58.568Z,115.40
2019-05-28T01:51:33.887Z,118.30
2019-05-28T01:52:09.262Z,113.90
2019-05-28T01:52:44.479Z,103.60
2019-05-28T01:53:20.252Z,99.40
2019-05-28T01:53:55.579Z,96.40
2019-05-28T01:54:30.866Z,89.00
2019-05-28T01:55:06.632Z,97.60
2019-05-28T01:55:41.847Z,93.90
2019-05-28T01:56:17.256Z,89.10
2019-05-28T01:56:52.481Z,100.10
2019-05-28T01:57:28.264Z,101.70
2019-05-28T01:58:03.557Z,97.20
2019-05-28T01:58:39.056Z,99.90
2019-05-28T01:59:14.554Z,104.70
2019-05-28T01:59:49.928Z,105.90
2019-05-28T02:00:25.233Z,113.90
2019-05-28T02:01:12.082Z,114.50
2019-05-28T02:01:35.728Z,102.60
2019-05-28T02:02:11.032Z,89.20
2019-05-28T02:02:46.979Z,97.00
2019-05-28T02:03:22.261Z,94.50
2019-05-28T02:03:57.660Z,87.80
2019-05-28T02:04:33.157Z,101.90
2019-05-28T02:05:08.346Z,121.20
2019-05-28T02:05:43.838Z,118.10
2019-05-28T02:06:19.222Z,98.40
2019-05-28T02:06:54.541Z,113.30
2019-05-28T02:07:29.910Z,101.80
2019-05-28T02:08:05.314Z,96.90
2019-05-28T02:08:40.526Z,86.00
2019-05-28T02:09:16.059Z,101.10
2019-05-28T02:09:51.516Z,113.50
2019-05-28T02:10:27.116Z,118.90
2019-05-28T02:11:02.648Z,131.00
2019-05-28T02:11:38.127Z,81.90
2019-05-28T02:12:13.520Z,81.70
2019-05-28T02:12:48.897Z,91.00
2019-05-28T02:13:24.312Z,98.60
2019-05-28T02:13:59.518Z,88.60
2019-05-28T02:14:34.824Z,89.80
2019-05-28T02:15:10.306Z,101.00
2019-05-28T02:15:45.492Z,84.20
2019-05-28T02:16:20.727Z,95.10
2019-05-28T02:16:55.910Z,102.80
2019-05-28T02:17:30.913Z,97.80
2019-05-28T02:18:06.370Z,110.10
2019-05-28T02:18:42.073Z,92.40
2019-05-28T02:19:17.348Z,96.10
2019-05-28T02:19:52.856Z,105.50
2019-05-28T02:20:28.138Z,103.10
2019-05-28T02:21:03.438Z,103.30
2019-05-28T02:21:38.722Z,97.80
2019-05-28T02:22:14.248Z,115.60
2019-05-28T02:22:49.458Z,118.30
2019-05-28T02:23:24.944Z,123.50
2019-05-28T02:24:00.179Z,111.20
2019-05-28T02:24:35.850Z,105.00
2019-05-28T02:25:11.360Z,95.80
2019-05-28T02:25:46.651Z,100.40
2019-05-28T02:26:22.162Z,83.90
2019-05-28T02:26:57.455Z,103.90
2019-05-28T02:27:32.859Z,92.30
2019-05-28T02:28:08.231Z,95.10
2019-05-28T02:28:43.733Z,86.70
2019-05-28T02:29:19.394Z,93.00
2019-05-28T02:29:54.783Z,98.70
2019-05-28T02:30:30.185Z,94.50
2019-05-28T02:31:05.656Z,101.10
2019-05-28T02:31:41.051Z,105.80
2019-05-28T02:32:17.318Z,100.70
2019-05-28T02:32:52.820Z,71.40
2019-05-28T02:33:28.220Z,81.70
2019-05-28T02:34:03.370Z,79.70
2019-05-28T02:34:38.740Z,86.20
2019-05-28T02:35:13.944Z,104.50
2019-05-28T02:35:49.594Z,111.90
2019-05-28T02:36:24.829Z,98.30
2019-05-28T02:37:00.144Z,85.80
2019-05-28T02:37:35.524Z,97.50
2019-05-28T02:38:11.044Z,100.00
2019-05-28T02:38:46.446Z,87.50
2019-05-28T02:39:21.941Z,85.70
2019-05-28T02:39:57.521Z,79.10
2019-05-28T02:40:32.829Z,73.00
2019-05-28T02:41:08.512Z,94.70
2019-05-28T02:41:43.723Z,97.90
2019-05-28T02:42:19.234Z,93.10
2019-05-28T02:42:54.513Z,96.20
2019-05-28T02:43:29.920Z,80.10
2019-05-28T02:44:05.147Z,100.10
2019-05-28T02:44:40.352Z,102.40
2019-05-28T02:45:15.739Z,103.00
2019-05-28T02:45:51.156Z,91.20
2019-05-28T02:46:26.469Z,71.70
2019-05-28T02:47:01.740Z,63.40
2019-05-28T02:47:37.063Z,105.00
2019-05-28T02:48:12.554Z,93.60
2019-05-28T02:48:48.190Z,103.60
2019-05-28T02:49:23.562Z,82.30
2019-05-28T02:49:59.070Z,80.20
2019-05-28T02:50:34.547Z,89.20
2019-05-28T02:51:10.090Z,89.30
2019-05-28T02:51:45.170Z,90.90
2019-05-28T02:52:20.463Z,92.60
2019-05-28T02:52:55.849Z,105.70
2019-05-28T02:53:31.265Z,118.30
2019-05-28T02:54:06.488Z,101.20
2019-05-28T02:54:41.803Z,103.70
2019-05-28T02:55:17.320Z,113.80
2019-05-28T02:55:52.498Z,109.30
2019-05-28T02:56:27.910Z,118.80
2019-05-28T02:57:03.831Z,119.40
2019-05-28T02:57:39.308Z,94.80
2019-05-28T02:58:14.396Z,98.70
2019-05-28T02:58:49.680Z,101.70
2019-05-28T02:59:24.832Z,104.80
2019-05-28T03:00:00.626Z,87.50
2019-05-28T03:00:35.721Z,104.90
2019-05-28T03:01:11.097Z,114.80
2019-05-28T03:01:46.429Z,123.80
2019-05-28T03:02:22.140Z,120.80
2019-05-28T03:02:57.429Z,100.00
2019-05-28T03:03:32.838Z,75.80
2019-05-28T03:04:08.054Z,72.40
2019-05-28T03:04:43.477Z,105.60
2019-05-28T03:05:18.720Z,112.10
2019-05-28T03:05:54.171Z,120.30
2019-05-28T03:06:29.498Z,110.90
2019-05-28T03:07:04.781Z,115.50
2019-05-28T03:07:40.074Z,125.20
2019-05-28T03:08:15.389Z,104.20
2019-05-28T03:08:50.879Z,103.60
2019-05-28T03:09:26.181Z,99.10
2019-05-28T03:10:01.743Z,87.90
2019-05-28T03:10:59.952Z,94.60
2019-05-28T03:11:12.746Z,91.60
2019-05-28T03:11:48.054Z,112.60
2019-05-28T03:12:23.339Z,98.70
2019-05-28T03:12:58.657Z,97.60
2019-05-28T03:13:33.842Z,91.80
2019-05-28T03:14:09.274Z,92.50
2019-05-28T03:14:44.665Z,88.70
2019-05-28T03:15:19.879Z,85.80
2019-05-28T03:15:55.410Z,70.00
2019-05-28T03:16:30.797Z,66.80
2019-05-28T03:17:06.411Z,89.70
2019-05-28T03:17:41.621Z,87.30
2019-05-28T03:18:16.914Z,87.00
2019-05-28T03:18:52.024Z,87.90
2019-05-28T03:19:27.454Z,98.00
2019-05-28T03:20:02.745Z,84.70
2019-05-28T03:20:38.352Z,86.50
2019-05-28T03:21:13.835Z,99.50
2019-05-28T03:21:49.033Z,99.80
2019-05-28T03:22:24.447Z,95.40
2019-05-28T03:22:59.917Z,91.80
2019-05-28T03:23:35.354Z,102.70
2019-05-28T03:24:10.861Z,109.40
2019-05-28T03:24:46.066Z,111.70
2019-05-28T03:25:21.605Z,93.10
2019-05-28T03:25:56.800Z,66.20
2019-05-28T03:26:32.182Z,100.70
2019-05-28T03:27:07.401Z,108.20
2019-05-28T03:27:42.989Z,95.80
2019-05-28T03:28:18.181Z,81.90
2019-05-28T03:28:53.802Z,89.60
2019-05-28T03:29:28.904Z,78.20
2019-05-28T03:30:04.414Z,84.50
2019-05-28T03:30:39.817Z,72.80
2019-05-28T03:31:15.215Z,82.40
2019-05-28T03:32:06.783Z,78.40
2019-05-28T03:32:26.054Z,75.00
2019-05-28T03:33:01.527Z,86.00
2019-05-28T03:33:36.886Z,95.00
2019-05-28T03:34:12.067Z,99.50
2019-05-28T03:34:47.469Z,80.50
2019-05-28T03:35:22.952Z,73.40
2019-05-28T03:35:58.354Z,87.10
2019-05-28T03:36:33.467Z,81.50
2019-05-28T03:37:08.840Z,81.70
2019-05-28T03:37:43.851Z,87.80
2019-05-28T03:38:19.344Z,98.30
2019-05-28T03:38:54.576Z,106.50
2019-05-28T03:39:29.885Z,99.50
2019-05-28T03:40:05.409Z,117.30
2019-05-28T03:40:40.771Z,101.40
2019-05-28T03:41:16.408Z,90.00
2019-05-28T03:41:51.797Z,101.70
2019-05-28T03:42:27.393Z,118.80
2019-05-28T03:43:02.939Z,121.90
2019-05-28T03:43:38.146Z,79.70
2019-05-28T03:44:13.352Z,102.60
2019-05-28T03:44:48.738Z,101.20
2019-05-28T03:45:24.146Z,98.00
2019-05-28T03:45:59.433Z,105.40
2019-05-28T03:46:34.840Z,98.00
2019-05-28T03:47:10.425Z,87.40
2019-05-28T03:47:46.035Z,96.70
2019-05-28T03:48:21.342Z,96.60
2019-05-28T03:48:56.649Z,75.80
2019-05-28T03:49:31.922Z,69.70
2019-05-28T03:50:07.433Z,85.60
2019-05-28T03:50:42.631Z,89.90
2019-05-28T03:51:17.906Z,107.10
2019-05-28T03:51:53.117Z,84.80
2019-05-28T03:52:28.503Z,94.20
2019-05-28T03:53:03.914Z,99.40
2019-05-28T03:53:39.545Z,99.60
2019-05-28T03:54:15.045Z,93.60
2019-05-28T03:54:50.306Z,82.20
2019-05-28T03:55:25.314Z,76.40
2019-05-28T03:56:00.504Z,93.20
2019-05-28T03:56:35.814Z,113.00
2019-05-28T03:57:10.914Z,100.60
2019-05-28T03:57:46.430Z,98.40
2019-05-28T03:58:21.835Z,95.10
2019-05-28T03:58:57.241Z,94.30
2019-05-28T03:59:32.757Z,89.40
2019-05-28T04:00:08.024Z,100.10
2019-05-28T04:00:43.525Z,91.70
2019-05-28T04:01:18.713Z,87.80
2019-05-28T04:01:54.011Z,93.30
2019-05-28T04:02:29.491Z,101.50
2019-05-28T04:03:04.798Z,103.10
2019-05-28T04:03:40.228Z,77.30
2019-05-28T04:04:15.327Z,63.10
2019-05-28T04:04:50.949Z,82.70
2019-05-28T04:05:26.025Z,95.90
2019-05-28T04:06:01.347Z,104.50
2019-05-28T04:06:36.613Z,98.30
2019-05-28T04:07:11.811Z,74.90
2019-05-28T04:07:47.095Z,73.50
2019-05-28T04:08:22.391Z,99.70
2019-05-28T04:08:57.699Z,88.90
2019-05-28T04:09:33.957Z,71.30
2019-05-28T04:10:08.596Z,94.80
2019-05-28T04:10:44.192Z,111.30
2019-05-28T04:11:19.402Z,100.40
2019-05-28T04:11:54.691Z,101.20
2019-05-28T04:12:30.011Z,75.20
2019-05-28T04:13:05.178Z,75.00
2019-05-28T04:13:40.491Z,88.10
2019-05-28T04:14:15.956Z,94.80
2019-05-28T04:14:51.344Z,110.60
2019-05-28T04:15:26.613Z,104.70
2019-05-28T04:16:01.853Z,94.20
2019-05-28T04:16:37.404Z,111.10
2019-05-28T04:17:12.608Z,115.90
2019-05-28T04:17:47.728Z,117.20
2019-05-28T04:18:23.012Z,115.80
2019-05-28T04:18:58.306Z,95.50
2019-05-28T04:19:33.619Z,116.60
2019-05-28T04:20:09.039Z,126.10
2019-05-28T04:20:44.422Z,116.60
2019-05-28T04:21:19.755Z,87.20
2019-05-28T04:21:55.236Z,64.30
2019-05-28T04:22:30.506Z,84.60
2019-05-28T04:23:05.886Z,96.10
2019-05-28T04:23:41.902Z,105.10
2019-05-28T04:24:16.406Z,101.20
2019-05-28T04:24:51.719Z,96.00
2019-05-28T04:25:26.921Z,93.30
2019-05-28T04:26:02.209Z,86.90
2019-05-28T04:26:37.621Z,98.10
2019-05-28T04:27:13.203Z,86.80
2019-05-28T04:27:48.364Z,81.50
2019-05-28T04:28:23.704Z,109.90
2019-05-28T04:28:59.313Z,120.80
2019-05-28T04:29:34.510Z,107.20
2019-05-28T04:30:09.739Z,93.40
2019-05-28T04:30:44.878Z,96.30
2019-05-28T04:31:20.138Z,105.60
2019-05-28T04:31:55.462Z,108.90
2019-05-28T04:32:40.101Z,108.50
2019-05-28T04:33:06.759Z,88.70
2019-05-28T04:33:42.036Z,93.70
2019-05-28T04:34:17.236Z,108.00
2019-05-28T04:34:52.721Z,118.50
2019-05-28T04:35:28.142Z,97.60
2019-05-28T04:36:03.728Z,96.60
2019-05-28T04:36:39.040Z,96.00
2019-05-28T04:37:14.328Z,81.80
2019-05-28T04:37:49.847Z,72.00
2019-05-28T04:38:25.160Z,111.60
2019-05-28T04:39:00.639Z,87.20
2019-05-28T04:39:36.133Z,100.00
2019-05-28T04:40:11.412Z,96.50
2019-05-28T04:40:46.850Z,80.40
2019-05-28T04:41:22.358Z,71.50
2019-05-28T04:41:57.647Z,85.00
2019-05-28T04:42:33.060Z,93.60
2019-05-28T04:43:08.488Z,99.90
2019-05-28T04:43:43.719Z,97.30
2019-05-28T04:44:18.909Z,91.60
2019-05-28T04:44:54.622Z,96.80
2019-05-28T04:45:30.112Z,118.40
2019-05-28T04:46:05.175Z,115.10
2019-05-28T04:46:40.349Z,108.90
2019-05-28T04:47:15.762Z,90.30
2019-05-28T04:47:51.256Z,117.00
2019-05-28T04:48:26.750Z,125.30
2019-05-28T04:49:01.983Z,122.20
2019-05-28T04:49:37.294Z,92.30
2019-05-28T04:50:12.674Z,82.80
2019-05-28T04:50:48.014Z,83.40
2019-05-28T04:51:23.970Z,102.50
2019-05-28T04:51:59.150Z,109.30
2019-05-28T04:52:34.657Z,99.40
2019-05-28T04:53:09.931Z,103.30
2019-05-28T04:53:45.137Z,109.80
2019-05-28T04:54:20.257Z,112.90
2019-05-28T04:54:55.546Z,107.80
2019-05-28T04:55:30.966Z,107.20
2019-05-28T04:56:06.245Z,92.70
2019-05-28T04:56:41.490Z,105.20
2019-05-28T04:57:16.758Z,106.00
2019-05-28T04:57:52.286Z,101.00
2019-05-28T04:58:27.977Z,104.80
2019-05-28T04:59:03.927Z,113.40
2019-05-28T04:59:38.484Z,101.50
2019-05-28T05:00:13.757Z,87.70
2019-05-28T05:00:48.964Z,84.20
2019-05-28T05:01:24.449Z,93.10
2019-05-28T05:01:59.980Z,100.30
2019-05-28T05:02:35.175Z,93.90
2019-05-28T05:03:10.378Z,104.90
2019-05-28T05:03:45.779Z,122.10
2019-05-28T05:04:20.982Z,116.20
2019-05-28T05:04:56.378Z,104.50
2019-05-28T05:05:31.604Z,114.00
2019-05-28T05:06:07.113Z,102.20
2019-05-28T05:06:42.419Z,102.50
2019-05-28T05:07:17.810Z,100.80
2019-05-28T05:07:53.121Z,84.60
2019-05-28T05:08:28.503Z,84.80
2019-05-28T05:09:04.006Z,88.20
2019-05-28T05:09:39.281Z,98.50
2019-05-28T05:10:18.228Z,111.10
2019-05-28T05:10:50.031Z,111.70
2019-05-28T05:11:25.211Z,111.70
2019-05-28T05:12:00.299Z,100.10
2019-05-28T05:12:35.636Z,96.30
2019-05-28T05:13:11.239Z,107.30
2019-05-28T05:13:46.747Z,97.50
2019-05-28T05:14:22.350Z,99.20
2019-05-28T05:14:57.571Z,94.00
2019-05-28T05:15:33.429Z,83.80
2019-05-28T05:16:09.017Z,108.80
2019-05-28T05:16:44.417Z,116.50
2019-05-28T05:17:20.095Z,128.80
2019-05-28T05:17:55.645Z,136.90
2019-05-28T05:18:30.911Z,132.40
2019-05-28T05:19:06.111Z,106.40
2019-05-28T05:19:41.487Z,103.50
2019-05-28T05:20:16.816Z,106.40
2019-05-28T05:20:52.218Z,124.30
2019-05-28T05:21:27.719Z,121.80
2019-05-28T05:22:03.103Z,98.10
2019-05-28T05:22:38.621Z,84.40
2019-05-28T05:23:13.939Z,102.80
2019-05-28T05:23:49.338Z,124.80
2019-05-28T05:24:24.626Z,114.20
2019-05-28T05:25:00.025Z,137.40
2019-05-28T05:25:35.404Z,128.40
2019-05-28T05:26:10.533Z,122.70
2019-05-28T05:26:45.702Z,118.00
2019-05-28T05:27:21.023Z,126.80
2019-05-28T05:27:56.298Z,134.00
2019-05-28T05:28:31.727Z,131.80
2019-05-28T05:29:07.004Z,111.10
2019-05-28T05:29:42.520Z,108.80
2019-05-28T05:30:18.067Z,121.40
2019-05-28T05:30:53.423Z,122.70
2019-05-28T05:31:28.619Z,142.30
2019-05-28T05:32:04.028Z,130.00
2019-05-28T05:32:39.420Z,126.20
2019-05-28T05:33:20.465Z,132.80
2019-05-28T05:33:50.262Z,121.00
2019-05-28T05:34:25.777Z,142.00
2019-05-28T05:35:00.945Z,142.10
2019-05-28T05:35:36.272Z,113.40
2019-05-28T05:36:11.641Z,112.50
2019-05-28T05:36:46.936Z,118.70
2019-05-28T05:37:22.206Z,115.90
2019-05-28T05:37:57.523Z,124.00
2019-05-28T05:38:32.822Z,106.90
2019-05-28T05:39:08.271Z,100.50
2019-05-28T05:39:43.662Z,109.80
2019-05-28T05:40:19.316Z,120.90
2019-05-28T05:40:54.544Z,133.70
2019-05-28T05:41:30.056Z,144.40
2019-05-28T05:42:05.333Z,130.70
2019-05-28T05:42:40.839Z,123.40
2019-05-28T05:43:16.011Z,106.40
2019-05-28T05:43:51.466Z,115.90
2019-05-28T05:44:26.651Z,117.00
2019-05-28T05:45:02.162Z,111.60
2019-05-28T05:45:37.490Z,100.10
2019-05-28T05:46:12.777Z,115.50
2019-05-28T05:46:48.059Z,121.00
2019-05-28T05:47:23.365Z,128.70
2019-05-28T05:47:58.854Z,120.70
2019-05-28T05:48:33.856Z,114.70
2019-05-28T05:49:09.453Z,118.10
2019-05-28T05:49:44.897Z,119.80
2019-05-28T05:50:20.173Z,126.80
2019-05-28T05:50:55.193Z,126.10
2019-05-28T05:51:30.569Z,138.40
2019-05-28T05:52:05.897Z,145.60
2019-05-28T05:52:41.178Z,157.80
2019-05-28T05:53:16.588Z,165.10
2019-05-28T05:53:52.092Z,140.90
2019-05-28T05:54:27.594Z,116.00
2019-05-28T05:55:03.186Z,111.30
2019-05-28T05:55:38.691Z,144.30
2019-05-28T05:56:14.119Z,141.20
2019-05-28T05:56:49.432Z,143.00
2019-05-28T05:57:24.636Z,155.40
2019-05-28T05:58:00.245Z,149.50
2019-05-28T05:58:35.618Z,156.40
2019-05-28T05:59:10.915Z,152.50
2019-05-28T05:59:46.102Z,157.40
2019-05-28T06:00:21.351Z,139.40
2019-05-28T06:00:56.650Z,132.70
2019-05-28T06:01:31.938Z,142.60
2019-05-28T06:02:07.223Z,146.60
2019-05-28T06:02:42.555Z,146.90
2019-05-28T06:03:17.715Z,150.20
2019-05-28T06:03:52.955Z,124.30
2019-05-28T06:04:28.277Z,153.90
2019-05-28T06:05:03.672Z,148.20
2019-05-28T06:05:38.891Z,153.70
2019-05-28T06:06:14.280Z,144.50
2019-05-28T06:06:49.596Z,121.40
2019-05-28T06:07:25.189Z,132.80
2019-05-28T06:08:00.377Z,138.70
2019-05-28T06:08:37.094Z,136.90
2019-05-28T06:09:10.670Z,135.60
2019-05-28T06:09:45.856Z,141.90
2019-05-28T06:10:21.257Z,151.80
2019-05-28T06:10:56.786Z,159.20
2019-05-28T06:11:32.232Z,162.50
2019-05-28T06:12:07.611Z,153.80
2019-05-28T06:12:43.120Z,144.90
2019-05-28T06:13:18.296Z,143.80
2019-05-28T06:13:53.710Z,150.80
2019-05-28T06:14:29.395Z,152.70
2019-05-28T06:15:04.905Z,151.60
2019-05-28T06:15:40.313Z,151.00
2019-05-28T06:16:15.970Z,128.00
2019-05-28T06:16:51.446Z,115.80
2019-05-28T06:17:26.746Z,143.70
2019-05-28T06:18:02.141Z,144.40
2019-05-28T06:18:37.436Z,164.50
2019-05-28T06:19:12.521Z,144.00
2019-05-28T06:19:47.707Z,139.10
2019-05-28T06:20:23.198Z,144.10
2019-05-28T06:21:09.780Z,144.50
2019-05-28T06:21:33.768Z,135.40
2019-05-28T06:22:09.185Z,149.40
2019-05-28T06:22:44.373Z,134.30
2019-05-28T06:23:19.780Z,131.60
2019-05-28T06:23:55.098Z,157.40
2019-05-28T06:24:30.411Z,162.50
2019-05-28T06:25:05.606Z,146.40
2019-05-28T06:25:40.971Z,143.00
2019-05-28T06:26:16.306Z,157.10
2019-05-28T06:26:51.606Z,169.10
2019-05-28T06:27:26.960Z,158.80
2019-05-28T06:28:02.859Z,167.40
2019-05-28T06:28:38.369Z,147.60
2019-05-28T06:29:13.610Z,141.20
2019-05-28T06:29:48.804Z,128.20
2019-05-28T06:30:24.018Z,142.30
2019-05-28T06:30:59.297Z,154.80
2019-05-28T06:31:34.815Z,148.90
2019-05-28T06:32:09.941Z,125.00
2019-05-28T06:32:45.252Z,123.00
2019-05-28T06:33:20.658Z,146.90
2019-05-28T06:33:57.240Z,154.10
2019-05-28T06:34:31.027Z,135.70
2019-05-28T06:35:06.556Z,121.50
2019-05-28T06:35:41.767Z,138.00
2019-05-28T06:36:16.986Z,132.00
2019-05-28T06:36:52.448Z,144.20
2019-05-28T06:37:28.105Z,144.40
2019-05-28T06:38:06.982Z,141.70
2019-05-28T06:38:42.604Z,138.10
2019-05-28T06:39:18.197Z,120.40
2019-05-28T06:39:53.429Z,132.00
2019-05-28T06:40:28.746Z,147.30
2019-05-28T06:41:04.135Z,133.00
2019-05-28T06:41:39.470Z,141.20
2019-05-28T06:42:14.528Z,146.40
2019-05-28T06:42:49.666Z,151.10
2019-05-28T06:43:25.053Z,149.50
2019-05-28T06:44:00.470Z,141.40
2019-05-28T06:44:35.967Z,157.90
2019-05-28T06:45:11.393Z,144.90
2019-05-28T06:45:46.767Z,146.30
2019-05-28T06:46:21.988Z,128.20
2019-05-28T06:46:57.285Z,144.40
2019-05-28T06:47:32.702Z,145.90
2019-05-28T06:48:07.997Z,149.00
2019-05-28T06:48:43.214Z,161.60
2019-05-28T06:49:18.499Z,129.90
2019-05-28T06:49:53.934Z,135.30
2019-05-28T06:50:29.347Z,139.90
2019-05-28T06:51:04.630Z,129.80
2019-05-28T06:51:40.242Z,147.80
2019-05-28T06:52:15.753Z,152.90
2019-05-28T06:52:50.866Z,145.20
2019-05-28T06:53:26.198Z,152.30
2019-05-28T06:54:01.803Z,150.60
2019-05-28T06:54:37.208Z,144.10
2019-05-28T06:55:12.728Z,139.70
2019-05-28T06:55:47.919Z,159.30
2019-05-28T06:56:23.119Z,164.50
2019-05-28T06:56:58.493Z,156.80
2019-05-28T06:57:34.097Z,146.80
2019-05-28T06:58:09.501Z,144.70
2019-05-28T06:58:44.846Z,149.10
2019-05-28T06:59:20.108Z,153.20
2019-05-28T06:59:55.338Z,152.50
2019-05-28T07:00:30.971Z,157.70
2019-05-28T07:01:06.408Z,126.60
2019-05-28T07:01:41.962Z,147.80
2019-05-28T07:02:17.296Z,151.10
2019-05-28T07:02:52.481Z,147.70
2019-05-28T07:03:28.088Z,135.20
2019-05-28T07:04:13.340Z,117.20
2019-05-28T07:04:39.047Z,129.10
2019-05-28T07:05:14.328Z,134.50
2019-05-28T07:06:05.431Z,124.80
2019-05-28T07:06:24.740Z,127.70
2019-05-28T07:07:00.151Z,146.30
2019-05-28T07:07:35.542Z,121.30
2019-05-28T07:08:10.955Z,119.30
2019-05-28T07:08:46.236Z,134.90
2019-05-28T07:09:21.280Z,126.90
2019-05-28T07:09:56.568Z,110.30
2019-05-28T07:10:31.881Z,133.50
2019-05-28T07:11:07.261Z,149.90
2019-05-28T07:11:42.657Z,145.80
2019-05-28T07:12:18.349Z,138.70
2019-05-28T07:12:53.181Z,137.40
2019-05-28T07:13:28.595Z,124.50
2019-05-28T07:14:03.889Z,121.40
2019-05-28T07:14:39.474Z,129.10
2019-05-28T07:15:14.957Z,131.40
2019-05-28T07:15:50.589Z,132.20
2019-05-28T07:16:26.070Z,113.60
2019-05-28T07:17:01.280Z,96.30
2019-05-28T07:17:36.561Z,93.50
2019-05-28T07:18:11.881Z,103.40
2019-05-28T07:18:47.569Z,127.30
2019-05-28T07:19:24.924Z,130.30
2019-05-28T07:19:58.608Z,123.10
2019-05-28T07:20:34.225Z,140.60
2019-05-28T07:21:09.546Z,132.70
2019-05-28T07:21:44.848Z,127.50
2019-05-28T07:22:20.428Z,107.70
2019-05-28T07:22:55.754Z,121.90
2019-05-28T07:23:31.434Z,130.00
2019-05-28T07:24:06.538Z,106.60
2019-05-28T07:24:41.793Z,116.10
2019-05-28T07:25:17.200Z,143.30
2019-05-28T07:25:52.473Z,141.20
2019-05-28T07:26:27.898Z,135.20